createdAt,value
2019-05-15T00:01:25.547Z,5.78
2019-05-15T00:03:52.146Z,5.58
2019-05-15T00:06:19.165Z,4.58
2019-05-15T00:08:47.997Z,5.55
2019-05-15T00:11:14.784Z,4.92
2019-05-15T00:13:41.577Z,5.12
2019-05-15T00:16:08.654Z,5.50
2019-05-15T00:18:35.616Z,5.10
2019-05-15T00:21:02.355Z,7.12
2019-05-15T00:23:29.305Z,4.25
2019-05-15T00:25:58.489Z,5.70
2019-05-15T00:28:24.652Z,6.15
2019-05-15T00:30:51.367Z,5.72
2019-05-15T00:33:19.343Z,5.58
2019-05-15T00:35:48.435Z,4.03
2019-05-15T00:38:14.738Z,5.05
2019-05-15T00:40:41.509Z,7.00
2019-05-15T00:43:08.946Z,5.80
2019-05-15T00:45:38.573Z,7.60
2019-05-15T00:48:05.692Z,6.05
2019-05-15T00:50:32.510Z,5.03
2019-05-15T00:53:00.205Z,6.05
2019-05-15T00:55:30.935Z,5.65
2019-05-15T00:57:59.009Z,4.92
2019-05-15T01:00:42.100Z,4.40
2019-05-15T01:03:09.817Z,3.45
2019-05-15T01:05:38.613Z,4.25
2019-05-15T01:08:09.030Z,3.95
2019-05-15T01:10:38.371Z,5.45
2019-05-15T01:13:04.506Z,4.92
2019-05-15T01:15:31.365Z,3.92
2019-05-15T01:17:58.376Z,5.50
2019-05-15T01:20:25.410Z,5.83
2019-05-15T01:22:52.221Z,4.28
2019-05-15T01:25:19.351Z,6.58
2019-05-15T01:27:46.009Z,3.33
2019-05-15T01:32:59.259Z,3.22
2019-05-15T01:35:25.987Z,4.28
2019-05-15T01:37:53.613Z,4.47
2019-05-15T01:40:28.923Z,5.15
2019-05-15T01:42:58.155Z,4.03
2019-05-15T01:45:24.259Z,5.58
2019-05-15T01:47:50.871Z,4.17
2019-05-15T01:50:18.775Z,3.52
2019-05-15T01:53:04.161Z,4.90
2019-05-15T01:55:30.719Z,4.45
2019-05-15T01:57:59.439Z,3.40
2019-05-15T02:00:28.165Z,3.50
2019-05-15T02:02:54.741Z,4.83
2019-05-15T02:05:21.725Z,3.72
2019-05-15T02:07:50.180Z,4.05
2019-05-15T02:10:20.522Z,4.80
2019-05-15T02:12:48.111Z,3.75
2019-05-15T02:15:15.349Z,4.10
2019-05-15T02:17:42.371Z,3.70
2019-05-15T02:20:13.160Z,3.47
2019-05-15T02:22:42.484Z,5.30
2019-05-15T02:25:08.989Z,4.60
2019-05-15T02:27:35.670Z,4.08
2019-05-15T02:30:21.103Z,4.28
2019-05-15T02:32:58.710Z,4.65
2019-05-15T02:35:24.138Z,4.45
2019-05-15T02:37:50.689Z,4.40
2019-05-15T02:40:19.193Z,4.40
2019-05-15T02:42:49.048Z,3.20
2019-05-15T02:45:14.893Z,3.35
2019-05-15T02:47:41.713Z,6.40
2019-05-15T02:50:10.768Z,5.50
2019-05-15T02:52:39.633Z,3.60
2019-05-15T02:55:09.373Z,3.05
2019-05-15T02:57:35.334Z,3.20
2019-05-15T03:00:10.365Z,3.25
2019-05-15T03:02:35.638Z,5.78
2019-05-15T03:05:09.257Z,4.95
2019-05-15T03:07:39.702Z,2.85
2019-05-15T03:10:05.325Z,3.50
2019-05-15T03:12:32.231Z,3.62
2019-05-15T03:15:00.616Z,3.27
2019-05-15T03:17:29.680Z,3.87
2019-05-15T03:19:59.077Z,4.28
2019-05-15T03:22:25.070Z,5.00
2019-05-15T03:24:51.662Z,3.50
2019-05-15T03:27:19.734Z,4.12
2019-05-15T03:29:49.411Z,3.70
2019-05-15T03:32:27.815Z,3.95
2019-05-15T03:34:47.802Z,3.33
2019-05-15T03:37:13.096Z,3.30
2019-05-15T03:39:40.189Z,3.67
2019-05-15T03:42:09.593Z,4.05
2019-05-15T03:44:39.028Z,3.17
2019-05-15T03:47:04.467Z,4.55
2019-05-15T03:49:31.119Z,5.62
2019-05-15T03:51:58.914Z,3.52
2019-05-15T03:54:44.900Z,2.30
2019-05-15T03:57:11.462Z,2.40
2019-05-15T03:59:39.968Z,3.85
2019-05-15T04:02:08.673Z,3.30
2019-05-15T04:04:35.374Z,2.85
2019-05-15T04:07:02.098Z,3.42
2019-05-15T04:09:29.414Z,3.55
2019-05-15T04:11:59.807Z,2.75
2019-05-15T04:14:25.343Z,2.83
2019-05-15T04:16:52.068Z,3.33
2019-05-15T04:19:19.583Z,2.58
2019-05-15T04:21:49.131Z,4.03
2019-05-15T04:24:15.531Z,2.83
2019-05-15T04:26:44.355Z,5.08
2019-05-15T04:29:10.964Z,4.17
2019-05-15T04:31:51.926Z,3.40
2019-05-15T04:34:08.988Z,3.35
2019-05-15T04:36:34.452Z,4.35
2019-05-15T04:39:00.937Z,4.03
2019-05-15T04:41:29.975Z,3.98
2019-05-15T04:43:56.002Z,5.05
2019-05-15T04:46:22.496Z,3.52
2019-05-15T04:48:50.148Z,4.87
2019-05-15T04:51:19.011Z,3.37
2019-05-15T04:53:49.920Z,4.05
2019-05-15T04:56:14.923Z,3.77
2019-05-15T04:58:42.629Z,4.22
2019-05-15T05:01:09.658Z,4.65
2019-05-15T05:03:39.351Z,4.17
2019-05-15T05:06:05.273Z,4.58
2019-05-15T05:08:33.947Z,4.58
2019-05-15T05:11:00.643Z,4.65
2019-05-15T05:13:28.683Z,2.80
2019-05-15T05:15:58.456Z,5.35
2019-05-15T05:18:24.322Z,6.15
2019-05-15T05:20:51.141Z,5.75
2019-05-15T05:23:19.358Z,4.60
2019-05-15T05:25:48.817Z,3.42
2019-05-15T05:28:15.296Z,6.58
2019-05-15T05:30:42.333Z,10.32
2019-05-15T05:33:09.071Z,12.53
2019-05-15T05:35:35.719Z,13.13
2019-05-15T05:38:02.692Z,6.65
2019-05-15T05:40:29.521Z,5.40
2019-05-15T05:42:59.617Z,6.22
2019-05-15T05:45:28.718Z,9.88
2019-05-15T05:47:55.087Z,6.78
2019-05-15T05:50:44.051Z,10.15
2019-05-15T05:53:10.149Z,7.15
2019-05-15T05:55:38.503Z,9.73
2019-05-15T05:58:08.023Z,8.85
2019-05-15T06:00:39.328Z,6.80
2019-05-15T06:03:08.722Z,6.50
2019-05-15T06:05:38.772Z,4.78
2019-05-15T06:08:08.043Z,8.08
2019-05-15T06:10:35.016Z,7.28
2019-05-15T06:13:01.671Z,9.05
2019-05-15T06:15:28.629Z,11.28
2019-05-15T06:17:55.280Z,11.22
2019-05-15T06:20:22.023Z,16.45
2019-05-15T06:22:48.519Z,21.77
2019-05-15T06:25:15.348Z,25.35
2019-05-15T06:27:43.593Z,11.60
2019-05-15T06:30:18.485Z,8.48
2019-05-15T06:32:40.247Z,13.40
2019-05-15T06:35:08.695Z,8.58
2019-05-15T06:37:35.864Z,11.85
2019-05-15T06:40:03.770Z,11.28
2019-05-15T06:42:30.478Z,8.08
2019-05-15T06:44:58.971Z,7.90
2019-05-15T06:47:25.877Z,5.40
2019-05-15T06:49:52.429Z,9.43
2019-05-15T06:52:19.135Z,7.95
2019-05-15T06:54:48.358Z,6.22
2019-05-15T06:57:14.497Z,6.70
2019-05-15T06:59:41.337Z,8.95
2019-05-15T07:02:08.182Z,9.55
2019-05-15T07:04:34.861Z,9.13
2019-05-15T07:07:01.733Z,7.87
2019-05-15T07:09:28.653Z,10.70
2019-05-15T07:11:55.543Z,8.35
2019-05-15T07:14:22.353Z,8.73
2019-05-15T07:16:49.056Z,9.30
2019-05-15T07:19:18.990Z,7.75
2019-05-15T07:21:45.953Z,7.00
2019-05-15T07:24:12.650Z,6.00
2019-05-15T07:26:39.443Z,12.58
2019-05-15T07:29:07.900Z,11.10
2019-05-15T07:31:34.743Z,9.05
2019-05-15T07:34:01.638Z,7.33
2019-05-15T07:36:28.837Z,8.58
2019-05-15T07:38:58.079Z,9.63
2019-05-15T07:41:24.968Z,7.05
2019-05-15T07:43:51.487Z,8.53
2019-05-15T07:46:18.554Z,8.58
2019-05-15T07:48:45.401Z,9.75
2019-05-15T07:51:12.119Z,11.95
2019-05-15T07:53:38.879Z,6.75
2019-05-15T07:56:05.606Z,7.33
2019-05-15T07:58:32.556Z,7.33
2019-05-15T08:00:59.516Z,10.63
2019-05-15T08:03:29.037Z,12.05
2019-05-15T08:05:59.053Z,13.03
2019-05-15T08:08:23.203Z,20.15
2019-05-15T08:10:49.870Z,65.55
2019-05-15T08:13:18.523Z,12.93
2019-05-15T08:15:45.194Z,24.92
2019-05-15T08:18:12.957Z,55.28
2019-05-15T08:20:39.930Z,23.60
2019-05-15T08:23:08.511Z,29.05
2019-05-15T08:25:38.776Z,26.90
2019-05-15T08:28:08.327Z,24.07
2019-05-15T08:30:34.618Z,7.60
2019-05-15T08:33:03.005Z,6.90
2019-05-15T08:35:29.685Z,13.78
2019-05-15T08:37:58.230Z,17.52
2019-05-15T08:40:25.106Z,22.05
2019-05-15T08:42:57.082Z,11.33
2019-05-15T08:45:20.549Z,20.10
2019-05-15T08:47:49.291Z,8.75
2019-05-15T08:50:18.264Z,7.35
2019-05-15T08:52:44.760Z,10.23
2019-05-15T08:55:12.095Z,5.62
2019-05-15T08:57:38.763Z,9.05
2019-05-15T09:00:09.627Z,7.72
2019-05-15T09:02:38.097Z,6.08
2019-05-15T09:05:08.616Z,3.95
2019-05-15T09:07:38.345Z,4.37
2019-05-15T09:10:09.430Z,15.60
2019-05-15T09:12:38.820Z,13.15
2019-05-15T09:15:07.924Z,7.20
2019-05-15T09:17:34.613Z,13.78
2019-05-15T09:20:01.611Z,4.33
2019-05-15T09:22:29.166Z,6.78
2019-05-15T09:24:58.800Z,5.37
2019-05-15T09:27:25.236Z,5.15
2019-05-15T09:29:53.017Z,4.33
2019-05-15T09:32:19.535Z,3.95
2019-05-15T09:34:54.923Z,5.45
2019-05-15T09:37:18.024Z,5.45
2019-05-15T09:39:45.103Z,5.00
2019-05-15T09:42:11.732Z,9.05
2019-05-15T09:44:39.198Z,7.03
2019-05-15T09:47:09.174Z,8.28
2019-05-15T09:49:38.968Z,6.53
2019-05-15T09:52:05.261Z,7.12
2019-05-15T09:54:32.413Z,10.28
2019-05-15T09:56:59.174Z,5.17
2019-05-15T09:59:28.004Z,5.03
2019-05-15T10:01:54.516Z,10.03
2019-05-15T10:04:21.415Z,5.47
2019-05-15T10:06:48.632Z,8.50
2019-05-15T10:09:18.675Z,7.33
2019-05-15T10:11:44.945Z,6.20
2019-05-15T10:14:11.933Z,4.95
2019-05-15T10:16:38.760Z,5.12
2019-05-15T10:19:08.944Z,8.13
2019-05-15T10:21:35.789Z,5.05
2019-05-15T10:24:02.820Z,6.22
2019-05-15T10:26:29.403Z,7.35
2019-05-15T10:28:58.426Z,8.80
2019-05-15T10:31:24.869Z,8.00
2019-05-15T10:33:53.537Z,12.68
2019-05-15T10:36:20.423Z,6.85
2019-05-15T10:38:48.798Z,9.23
2019-05-15T10:41:15.725Z,6.08
2019-05-15T10:43:45.741Z,9.53
2019-05-15T10:46:13.504Z,6.53
2019-05-15T10:48:39.897Z,7.87
2019-05-15T10:51:10.085Z,7.85
2019-05-15T10:53:35.259Z,7.12
2019-05-15T10:56:02.695Z,4.67
2019-05-15T10:58:29.555Z,7.85
2019-05-15T11:01:00.925Z,5.92
2019-05-15T11:03:25.279Z,14.30
2019-05-15T11:05:51.992Z,11.25
2019-05-15T11:08:19.008Z,6.55
2019-05-15T11:10:48.608Z,6.50
2019-05-15T11:13:14.486Z,8.88
2019-05-15T11:15:42.599Z,4.70
2019-05-15T11:18:09.635Z,4.55
2019-05-15T11:20:40.914Z,4.55
2019-05-15T11:23:08.104Z,10.78
2019-05-15T11:25:37.662Z,6.92
2019-05-15T11:28:04.225Z,5.60
2019-05-15T11:30:30.804Z,6.35
2019-05-15T11:32:58.761Z,6.22
2019-05-15T11:35:28.364Z,7.17
2019-05-15T11:37:57.013Z,11.40
2019-05-15T11:40:23.433Z,9.55
2019-05-15T11:42:51.148Z,6.83
2019-05-15T11:45:19.302Z,4.92
2019-05-15T11:47:48.128Z,9.70
2019-05-15T11:50:20.029Z,8.85
2019-05-15T11:52:45.811Z,11.83
2019-05-15T11:55:13.060Z,10.53
2019-05-15T11:57:46.831Z,7.70
2019-05-15T12:00:17.110Z,7.10
2019-05-15T12:02:38.609Z,14.18
2019-05-15T12:05:08.937Z,9.45
2019-05-15T12:07:38.006Z,8.33
2019-05-15T12:10:10.410Z,6.60
2019-05-15T12:12:38.594Z,8.80
2019-05-15T12:15:05.541Z,9.90
2019-05-15T12:17:34.248Z,6.37
2019-05-15T12:20:06.454Z,9.53
2019-05-15T12:22:29.916Z,6.55
2019-05-15T12:25:00.165Z,4.72
2019-05-15T12:27:25.476Z,7.53
2019-05-15T12:29:52.098Z,5.25
2019-05-15T12:34:49.501Z,6.40
2019-05-15T12:37:16.118Z,5.83
2019-05-15T12:37:59.046Z,4.72
2019-05-15T12:39:42.949Z,8.85
2019-05-15T13:02:04.718Z,14.78
2019-05-15T13:04:31.919Z,9.58
2019-05-15T13:07:12.921Z,14.18
2019-05-15T13:09:29.830Z,6.55
2019-05-15T13:11:56.452Z,10.15
2019-05-15T13:14:22.947Z,7.87
2019-05-15T13:16:49.730Z,13.35
2019-05-15T13:19:18.758Z,10.80
2019-05-15T13:21:44.955Z,10.05
2019-05-15T13:24:11.717Z,10.78
2019-05-15T13:26:38.620Z,14.58
2019-05-15T13:29:05.509Z,10.23
2019-05-15T13:31:33.883Z,11.33
2019-05-15T13:34:00.788Z,7.25
2019-05-15T13:36:29.261Z,7.45
2019-05-15T13:38:57.881Z,7.92
2019-05-15T13:41:24.828Z,9.80
2019-05-15T13:43:51.516Z,10.43
2019-05-15T13:46:20.644Z,6.83
2019-05-15T13:48:49.032Z,8.98
2019-05-15T13:51:18.251Z,8.38
2019-05-15T13:53:45.098Z,7.40
2019-05-15T13:56:11.666Z,7.35
2019-05-15T13:58:38.951Z,8.65
2019-05-15T14:01:07.238Z,10.35
2019-05-15T14:03:34.713Z,9.43
2019-05-15T14:06:01.732Z,11.50
2019-05-15T14:08:29.005Z,10.93
2019-05-15T14:10:58.111Z,10.93
2019-05-15T14:13:24.500Z,7.40
2019-05-15T14:15:52.617Z,9.93
2019-05-15T14:18:19.893Z,8.80
2019-05-15T14:20:48.898Z,6.53
2019-05-15T14:23:15.844Z,7.83
2019-05-15T14:25:42.985Z,6.60
2019-05-15T14:28:09.819Z,12.15
2019-05-15T14:30:37.616Z,9.53
2019-05-15T14:33:04.260Z,7.92
2019-05-15T14:35:31.009Z,6.20
2019-05-15T14:38:06.297Z,5.72
2019-05-15T14:40:28.486Z,6.97
2019-05-15T14:42:55.637Z,9.95
2019-05-15T14:45:22.610Z,6.42
2019-05-15T14:47:49.539Z,12.68
2019-05-15T14:50:16.763Z,31.20
2019-05-15T14:52:43.589Z,12.03
2019-05-15T14:55:11.365Z,12.00
2019-05-15T14:57:39.677Z,8.70
2019-05-15T15:00:08.964Z,6.85
2019-05-15T15:02:38.644Z,8.18
2019-05-15T15:05:04.830Z,10.23
2019-05-15T15:07:31.521Z,10.58
2019-05-15T15:09:58.367Z,8.25
2019-05-15T15:12:25.029Z,9.40
2019-05-15T15:14:51.636Z,9.10
2019-05-15T15:17:19.567Z,10.48
2019-05-15T15:19:51.605Z,12.03
2019-05-15T15:22:15.789Z,10.68
2019-05-15T15:24:42.558Z,7.37
2019-05-15T15:27:09.370Z,10.28
2019-05-15T15:29:38.753Z,11.45
2019-05-15T15:32:04.902Z,11.43
2019-05-15T15:34:31.752Z,10.63
2019-05-15T15:36:58.587Z,10.00
2019-05-15T15:39:25.265Z,8.78
2019-05-15T15:41:52.024Z,9.60
2019-05-15T15:44:18.854Z,11.10
2019-05-15T15:46:48.308Z,12.47
2019-05-15T15:49:16.951Z,7.90
2019-05-15T15:51:43.484Z,8.50
2019-05-15T15:54:10.180Z,13.78
2019-05-15T15:56:39.169Z,9.90
2019-05-15T15:59:05.526Z,9.38
2019-05-15T16:01:33.890Z,11.53
2019-05-15T16:04:01.442Z,11.95
2019-05-15T16:06:29.353Z,10.72
2019-05-15T16:08:56.494Z,11.55
2019-05-15T16:11:23.384Z,12.43
2019-05-15T16:13:50.244Z,14.55
2019-05-15T16:16:17.954Z,11.15
2019-05-15T16:18:44.920Z,17.00
2019-05-15T16:21:11.558Z,14.65
2019-05-15T16:23:38.706Z,12.98
2019-05-15T16:26:05.623Z,12.80
2019-05-15T16:28:34.163Z,11.53
2019-05-15T16:31:01.067Z,14.90
2019-05-15T16:33:28.319Z,14.15
2019-05-15T16:35:57.963Z,100.70
2019-05-15T16:38:25.192Z,56.10
2019-05-15T16:40:52.379Z,18.67
2019-05-15T16:43:19.008Z,12.25
2019-05-15T16:45:49.493Z,12.28
2019-05-15T16:48:14.549Z,10.43
2019-05-15T16:50:41.183Z,8.88
2019-05-15T16:53:09.170Z,11.15
2019-05-15T16:55:37.834Z,11.45
2019-05-15T16:58:04.612Z,12.25
2019-05-15T17:00:31.755Z,11.00
2019-05-15T17:03:09.013Z,10.68
2019-05-15T17:05:29.093Z,11.28
2019-05-15T17:07:58.181Z,10.30
2019-05-15T17:10:24.725Z,11.95
2019-05-15T17:12:54.476Z,9.70
2019-05-15T17:15:21.301Z,8.98
2019-05-15T17:17:50.110Z,9.28
2019-05-15T17:20:18.185Z,11.95
2019-05-15T17:22:45.525Z,17.77
2019-05-15T17:25:12.584Z,10.65
2019-05-15T17:27:39.193Z,13.28
2019-05-15T17:30:09.590Z,11.60
2019-05-15T17:32:39.735Z,16.62
2019-05-15T17:35:09.753Z,12.10
2019-05-15T17:37:37.982Z,12.70
2019-05-15T17:40:05.817Z,10.60
2019-05-15T17:42:32.584Z,12.13
2019-05-15T17:44:59.114Z,15.45
2019-05-15T17:47:28.439Z,16.62
2019-05-15T17:49:55.785Z,15.23
2019-05-15T17:52:23.364Z,15.30
2019-05-15T17:54:50.218Z,16.40
2019-05-15T17:57:19.305Z,17.17
2019-05-15T17:59:45.480Z,20.32
2019-05-15T18:02:12.180Z,15.85
2019-05-15T18:04:39.077Z,14.93
2019-05-15T18:07:08.457Z,15.95
2019-05-15T18:09:47.560Z,20.52
2019-05-15T18:12:03.879Z,19.85
2019-05-15T18:14:30.770Z,17.05
2019-05-15T18:16:58.595Z,16.30
2019-05-15T18:19:25.550Z,15.15
2019-05-15T18:21:52.283Z,19.57
2019-05-15T18:24:19.304Z,19.85
2019-05-15T18:26:46.026Z,17.87
2019-05-15T18:29:13.190Z,19.17
2019-05-15T18:31:40.241Z,20.30
2019-05-15T18:34:08.299Z,21.15
2019-05-15T18:36:35.530Z,20.45
2019-05-15T18:39:03.866Z,18.48
2019-05-15T18:41:31.070Z,17.05
2019-05-15T18:43:57.991Z,18.17
2019-05-15T18:46:24.960Z,18.37
2019-05-15T18:48:51.878Z,18.60
2019-05-15T18:51:19.142Z,17.52
2019-05-15T18:53:55.253Z,16.95
2019-05-15T18:57:18.662Z,18.45
2019-05-15T19:00:08.773Z,24.47
2019-05-15T19:02:48.017Z,18.70
2019-05-15T19:05:15.225Z,18.85
2019-05-15T19:07:58.209Z,20.97
2019-05-15T19:10:38.607Z,25.45
2019-05-15T19:13:53.891Z,26.80
2019-05-15T19:16:23.746Z,20.30
2019-05-15T19:19:33.271Z,16.42
2019-05-15T19:22:29.517Z,22.15
2019-05-15T19:25:05.203Z,31.20
2019-05-15T19:27:33.325Z,30.30
2019-05-15T19:30:00.650Z,25.90
2019-05-15T19:32:30.282Z,22.75
2019-05-15T19:34:58.865Z,29.90
2019-05-15T19:37:25.742Z,29.82
2019-05-15T19:39:52.745Z,31.85
2019-05-15T19:42:19.533Z,27.55
2019-05-15T19:44:48.312Z,29.42
2019-05-15T19:50:05.123Z,37.75
2019-05-15T19:52:31.970Z,35.38
2019-05-15T19:54:59.285Z,32.13
2019-05-15T19:57:28.015Z,31.10
2019-05-15T19:59:54.938Z,36.60
2019-05-15T20:02:21.759Z,39.00
2019-05-15T20:04:49.170Z,34.60
2019-05-15T20:07:18.590Z,32.83
2019-05-15T20:09:47.635Z,28.65
2019-05-15T20:12:14.530Z,30.80
2019-05-15T20:14:41.888Z,38.98
2019-05-15T20:17:08.596Z,31.17
2019-05-15T20:19:35.567Z,28.95
2019-05-15T20:22:02.382Z,30.15
2019-05-15T20:24:29.441Z,34.38
2019-05-15T20:26:56.148Z,35.20
2019-05-15T20:29:23.040Z,30.25
2019-05-15T20:31:50.008Z,25.62
2019-05-15T20:34:17.017Z,25.35
2019-05-15T20:36:43.675Z,37.55
2019-05-15T20:39:10.726Z,27.95
2019-05-15T20:41:38.497Z,28.57
2019-05-15T20:44:05.893Z,25.43
2019-05-15T20:46:32.863Z,28.77
2019-05-15T20:48:59.647Z,32.08
2019-05-15T20:51:29.035Z,36.08
2019-05-15T20:53:57.864Z,26.77
2019-05-15T20:56:24.410Z,28.23
2019-05-15T20:58:51.030Z,26.33
2019-05-15T21:01:18.307Z,32.38
2019-05-15T21:03:45.429Z,33.63
2019-05-15T21:06:12.618Z,29.98
2019-05-15T21:08:39.833Z,28.92
2019-05-15T21:11:11.334Z,30.12
2019-05-15T21:13:35.326Z,30.72
2019-05-15T21:16:02.229Z,31.68
2019-05-15T21:18:31.330Z,28.52
2019-05-15T21:20:58.123Z,29.25
2019-05-15T21:23:25.445Z,30.60
2019-05-15T21:25:52.145Z,34.80
2019-05-15T21:28:19.217Z,34.40
2019-05-15T21:30:48.823Z,31.40
2019-05-15T21:33:14.812Z,29.12
2019-05-15T21:35:41.738Z,28.55
2019-05-15T21:38:09.486Z,32.80
2019-05-15T21:40:38.450Z,31.73
2019-05-15T21:43:04.829Z,27.58
2019-05-15T21:45:37.626Z,25.15
2019-05-15T21:48:04.551Z,33.00
2019-05-15T21:50:31.370Z,37.25
2019-05-15T21:52:58.344Z,33.13
2019-05-15T21:55:25.237Z,30.08
2019-05-15T21:57:52.365Z,28.12
2019-05-15T22:03:49.540Z,32.53
2019-05-15T22:09:48.731Z,28.02
2019-05-15T22:12:18.252Z,23.73
2019-05-15T22:14:44.551Z,34.33
2019-05-15T22:17:12.100Z,31.50
2019-05-15T22:19:39.014Z,26.02
2019-05-15T22:22:05.635Z,29.42
2019-05-15T22:27:31.805Z,27.27
2019-05-15T22:29:58.924Z,31.02
2019-05-15T22:32:25.761Z,29.50
2019-05-15T22:35:05.739Z,25.68
2019-05-15T22:37:21.682Z,25.30
2019-05-15T22:39:48.633Z,26.82
2019-05-15T22:42:18.144Z,30.85
2019-05-15T22:44:44.296Z,27.73
2019-05-15T22:47:11.157Z,24.70
2019-05-15T22:49:38.147Z,24.98
2019-05-15T22:52:11.039Z,28.25
2019-05-15T22:54:58.457Z,27.85
2019-05-15T22:57:25.160Z,25.10
2019-05-15T22:59:54.629Z,21.00
2019-05-15T23:02:28.359Z,22.07
2019-05-15T23:04:55.019Z,21.57
2019-05-15T23:07:22.141Z,29.70
2019-05-15T23:09:49.097Z,22.93
2019-05-15T23:12:18.177Z,22.80
2019-05-15T23:14:44.583Z,24.10
2019-05-15T23:17:11.980Z,26.95
2019-05-15T23:19:38.648Z,25.92
2019-05-15T23:22:08.193Z,26.40
2019-05-15T23:24:38.585Z,21.00
2019-05-15T23:27:05.026Z,22.40
2019-05-15T23:29:50.732Z,23.83
2019-05-15T23:32:18.217Z,22.05
2019-05-15T23:34:45.110Z,23.35
2019-05-15T23:37:14.340Z,20.62
2019-05-15T23:40:00.986Z,21.55
2019-05-15T23:42:29.181Z,27.50
2019-05-15T23:44:56.408Z,26.73
2019-05-15T23:47:22.983Z,26.55
2019-05-15T23:49:49.608Z,24.67
2019-05-15T23:52:18.470Z,23.52
2019-05-15T23:55:08.498Z,25.72
2019-05-15T23:57:35.267Z,25.20
